sensor_id;sensor_type;location;lat;lon;timestamp;P1;durP1;ratioP1;P2;durP2;ratioP2
8319;SDS011;4197;42.130;24.746;2024-03-23T00:53:57;16.37;;;10.13;;
8319;SDS011;4197;42.130;24.746;2024-03-23T00:56:23;19.27;;;9.67;;
8319;SDS011;4197;42.130;24.746;2024-03-23T00:58:51;18.13;;;10.50;;
8319;SDS011;4197;42.130;24.746;2024-03-23T01:01:17;15.40;;;10.33;;
8319;SDS011;4197;42.130;24.746;2024-03-23T01:03:46;17.40;;;11.20;;
8319;SDS011;4197;42.130;24.746;2024-03-23T01:06:12;16.43;;;10.37;;
8319;SDS011;4197;42.130;24.746;2024-03-23T01:08:40;20.47;;;11.43;;
8319;SDS011;4197;42.130;24.746;2024-03-23T01:11:06;20.13;;;12.47;;
8319;SDS011;4197;42.130;24.746;2024-03-23T01:13:33;23.37;;;11.43;;
8319;SDS011;4197;42.130;24.746;2024-03-23T01:15:59;20.10;;;11.57;;
8319;SDS011;4197;42.130;24.746;2024-03-23T01:18:27;19.23;;;12.37;;
8319;SDS011;4197;42.130;24.746;2024-03-23T01:20:56;24.97;;;12.37;;
8319;SDS011;4197;42.130;24.746;2024-03-23T01:23:24;18.27;;;11.97;;
8319;SDS011;4197;42.130;24.746;2024-03-23T01:25:53;18.07;;;11.80;;
8319;SDS011;4197;42.130;24.746;2024-03-23T01:28:21;16.63;;;10.53;;
8319;SDS011;4197;42.130;24.746;2024-03-23T01:30:48;19.10;;;11.67;;
8319;SDS011;4197;42.130;24.746;2024-03-23T01:33:15;17.50;;;11.13;;
8319;SDS011;4197;42.130;24.746;2024-03-23T01:35:42;25.40;;;12.73;;
8319;SDS011;4197;42.130;24.746;2024-03-23T01:38:10;20.97;;;11.90;;
8319;SDS011;4197;42.130;24.746;2024-03-23T01:40:36;19.43;;;11.97;;
8319;SDS011;4197;42.130;24.746;2024-03-23T01:43:04;20.53;;;11.83;;
8319;SDS011;4197;42.130;24.746;2024-03-23T01:45:33;22.00;;;11.73;;
8319;SDS011;4197;42.130;24.746;2024-03-23T01:48:01;18.80;;;11.73;;
8319;SDS011;4197;42.130;24.746;2024-03-23T01:50:28;16.40;;;11.57;;
8319;SDS011;4197;42.130;24.746;2024-03-23T01:52:59;19.90;;;12.77;;
8319;SDS011;4197;42.130;24.746;2024-03-23T01:55:30;18.80;;;12.37;;
8319;SDS011;4197;42.130;24.746;2024-03-23T01:57:58;26.93;;;11.43;;
8319;SDS011;4197;42.130;24.746;2024-03-23T02:00:24;18.73;;;12.07;;
8319;SDS011;4197;42.130;24.746;2024-03-23T02:02:53;20.20;;;11.87;;
8319;SDS011;4197;42.130;24.746;2024-03-23T02:05:20;16.47;;;11.03;;
8319;SDS011;4197;42.130;24.746;2024-03-23T02:07:47;21.40;;;13.50;;
8319;SDS011;4197;42.130;24.746;2024-03-23T02:10:13;22.07;;;14.40;;
8319;SDS011;4197;42.130;24.746;2024-03-23T02:12:42;23.50;;;13.03;;
8319;SDS011;4197;42.130;24.746;2024-03-23T02:15:09;24.07;;;12.83;;
8319;SDS011;4197;42.130;24.746;2024-03-23T02:17:36;19.60;;;13.30;;
8319;SDS011;4197;42.130;24.746;2024-03-23T02:20:02;25.07;;;16.17;;
8319;SDS011;4197;42.130;24.746;2024-03-23T02:22:38;39.10;;;21.80;;
8319;SDS011;4197;42.130;24.746;2024-03-23T02:25:07;49.03;;;27.13;;
8319;SDS011;4197;42.130;24.746;2024-03-23T02:27:34;46.73;;;27.50;;
8319;SDS011;4197;42.130;24.746;2024-03-23T02:30:01;40.03;;;23.47;;
8319;SDS011;4197;42.130;24.746;2024-03-23T02:32:30;31.97;;;18.07;;
8319;SDS011;4197;42.130;24.746;2024-03-23T02:34:56;24.43;;;15.50;;
8319;SDS011;4197;42.130;24.746;2024-03-23T02:37:24;33.70;;;18.27;;
8319;SDS011;4197;42.130;24.746;2024-03-23T02:39:50;29.17;;;16.77;;
8319;SDS011;4197;42.130;24.746;2024-03-23T02:42:19;27.43;;;16.97;;
8319;SDS011;4197;42.130;24.746;2024-03-23T02:44:45;18.97;;;12.60;;
8319;SDS011;4197;42.130;24.746;2024-03-23T02:47:12;27.60;;;12.33;;
8319;SDS011;4197;42.130;24.746;2024-03-23T02:49:38;20.57;;;11.50;;
8319;SDS011;4197;42.130;24.746;2024-03-23T02:52:06;18.63;;;12.33;;
8319;SDS011;4197;42.130;24.746;2024-03-23T02:54:32;16.80;;;11.60;;
8319;SDS011;4197;42.130;24.746;2024-03-23T02:56:59;23.03;;;11.20;;
8319;SDS011;4197;42.130;24.746;2024-03-23T02:59:27;20.07;;;10.73;;
8319;SDS011;4197;42.130;24.746;2024-03-23T03:01:54;16.40;;;10.50;;
8319;SDS011;4197;42.130;24.746;2024-03-23T03:04:21;18.20;;;10.70;;
8319;SDS011;4197;42.130;24.746;2024-03-23T03:06:49;13.43;;;10.70;;
8319;SDS011;4197;42.130;24.746;2024-03-23T03:09:15;18.67;;;11.43;;
8319;SDS011;4197;42.130;24.746;2024-03-23T03:11:42;16.93;;;12.33;;
8319;SDS011;4197;42.130;24.746;2024-03-23T03:14:09;20.87;;;12.20;;
8319;SDS011;4197;42.130;24.746;2024-03-23T03:16:38;19.20;;;12.70;;
8319;SDS011;4197;42.130;24.746;2024-03-23T03:19:04;21.37;;;12.50;;
8319;SDS011;4197;42.130;24.746;2024-03-23T03:21:32;18.10;;;12.30;;
8319;SDS011;4197;42.130;24.746;2024-03-23T03:24:26;18.37;;;11.40;;
8319;SDS011;4197;42.130;24.746;2024-03-23T03:26:53;17.67;;;12.17;;
8319;SDS011;4197;42.130;24.746;2024-03-23T03:29:19;21.23;;;13.23;;
8319;SDS011;4197;42.130;24.746;2024-03-23T03:31:48;19.97;;;12.20;;
8319;SDS011;4197;42.130;24.746;2024-03-23T03:34:15;23.57;;;12.90;;
8319;SDS011;4197;42.130;24.746;2024-03-23T03:36:42;22.97;;;13.10;;
8319;SDS011;4197;42.130;24.746;2024-03-23T03:39:10;21.87;;;13.33;;
8319;SDS011;4197;42.130;24.746;2024-03-23T03:41:38;24.37;;;13.70;;
8319;SDS011;4197;42.130;24.746;2024-03-23T03:44:04;20.13;;;13.30;;
8319;SDS011;4197;42.130;24.746;2024-03-23T03:46:31;25.80;;;13.63;;
8319;SDS011;4197;42.130;24.746;2024-03-23T03:48:59;21.13;;;14.13;;
8319;SDS011;4197;42.130;24.746;2024-03-23T03:51:26;18.60;;;12.97;;
8319;SDS011;4197;42.130;24.746;2024-03-23T03:53:52;23.23;;;13.73;;
8319;SDS011;4197;42.130;24.746;2024-03-23T03:56:20;15.77;;;12.13;;
8319;SDS011;4197;42.130;24.746;2024-03-23T03:58:47;17.63;;;12.53;;
8319;SDS011;4197;42.130;24.746;2024-03-23T04:01:15;20.00;;;12.37;;
8319;SDS011;4197;42.130;24.746;2024-03-23T04:03:41;20.27;;;13.73;;
8319;SDS011;4197;42.130;24.746;2024-03-23T04:06:13;19.10;;;12.37;;
8319;SDS011;4197;42.130;24.746;2024-03-23T04:08:45;15.00;;;11.10;;
8319;SDS011;4197;42.130;24.746;2024-03-23T04:11:13;19.17;;;12.50;;
8319;SDS011;4197;42.130;24.746;2024-03-23T04:13:39;19.17;;;12.00;;
8319;SDS011;4197;42.130;24.746;2024-03-23T04:16:07;20.37;;;12.00;;
8319;SDS011;4197;42.130;24.746;2024-03-23T04:18:35;21.30;;;11.43;;
8319;SDS011;4197;42.130;24.746;2024-03-23T04:21:02;18.70;;;11.60;;
8319;SDS011;4197;42.130;24.746;2024-03-23T04:23:31;18.43;;;12.10;;
8319;SDS011;4197;42.130;24.746;2024-03-23T04:26:02;17.17;;;11.10;;
8319;SDS011;4197;42.130;24.746;2024-03-23T04:28:29;16.10;;;11.00;;
8319;SDS011;4197;42.130;24.746;2024-03-23T04:30:56;16.60;;;11.23;;
8319;SDS011;4197;42.130;24.746;2024-03-23T04:33:23;19.07;;;11.97;;
8319;SDS011;4197;42.130;24.746;2024-03-23T04:35:50;15.13;;;10.93;;
8319;SDS011;4197;42.130;24.746;2024-03-23T04:38:16;21.43;;;13.53;;
8319;SDS011;4197;42.130;24.746;2024-03-23T04:40:45;18.13;;;12.70;;
8319;SDS011;4197;42.130;24.746;2024-03-23T04:43:21;14.10;;;11.10;;
8319;SDS011;4197;42.130;24.746;2024-03-23T04:45:48;17.03;;;10.83;;
8319;SDS011;4197;42.130;24.746;2024-03-23T04:48:16;18.13;;;12.23;;
8319;SDS011;4197;42.130;24.746;2024-03-23T04:50:43;16.50;;;9.90;;
8319;SDS011;4197;42.130;24.746;2024-03-23T04:53:11;21.77;;;13.80;;
8319;SDS011;4197;42.130;24.746;2024-03-23T04:55:38;22.17;;;10.27;;
8319;SDS011;4197;42.130;24.746;2024-03-23T04:58:06;18.77;;;12.27;;
8319;SDS011;4197;42.130;24.746;2024-03-23T05:00:34;16.43;;;10.27;;
8319;SDS011;4197;42.130;24.746;2024-03-23T05:03:00;14.97;;;10.97;;
8319;SDS011;4197;42.130;24.746;2024-03-23T05:05:28;16.57;;;9.07;;
8319;SDS011;4197;42.130;24.746;2024-03-23T05:07:54;17.07;;;10.57;;
8319;SDS011;4197;42.130;24.746;2024-03-23T05:10:21;18.57;;;10.53;;
8319;SDS011;4197;42.130;24.746;2024-03-23T05:12:48;17.90;;;10.80;;
8319;SDS011;4197;42.130;24.746;2024-03-23T05:15:17;15.07;;;9.47;;
8319;SDS011;4197;42.130;24.746;2024-03-23T05:17:43;18.13;;;11.47;;
8319;SDS011;4197;42.130;24.746;2024-03-23T05:20:10;14.23;;;9.77;;
8319;SDS011;4197;42.130;24.746;2024-03-23T05:22:37;16.23;;;11.00;;
8319;SDS011;4197;42.130;24.746;2024-03-23T05:25:05;13.17;;;8.97;;
8319;SDS011;4197;42.130;24.746;2024-03-23T05:27:32;15.27;;;10.70;;
8319;SDS011;4197;42.130;24.746;2024-03-23T05:30:01;16.03;;;11.23;;
8319;SDS011;4197;42.130;24.746;2024-03-23T05:32:31;11.93;;;8.83;;
8319;SDS011;4197;42.130;24.746;2024-03-23T05:34:58;13.43;;;9.47;;
8319;SDS011;4197;42.130;24.746;2024-03-23T05:37:24;12.57;;;9.50;;
8319;SDS011;4197;42.130;24.746;2024-03-23T05:39:51;15.27;;;9.10;;
8319;SDS011;4197;42.130;24.746;2024-03-23T05:42:18;13.13;;;9.00;;
8319;SDS011;4197;42.130;24.746;2024-03-23T05:44:45;12.63;;;9.70;;
8319;SDS011;4197;42.130;24.746;2024-03-23T05:47:13;11.40;;;8.63;;
8319;SDS011;4197;42.130;24.746;2024-03-23T05:49:43;14.83;;;9.70;;
8319;SDS011;4197;42.130;24.746;2024-03-23T05:52:11;17.53;;;9.50;;
8319;SDS011;4197;42.130;24.746;2024-03-23T05:54:39;11.27;;;9.03;;
8319;SDS011;4197;42.130;24.746;2024-03-23T05:57:05;13.87;;;9.37;;
8319;SDS011;4197;42.130;24.746;2024-03-23T05:59:34;19.20;;;9.80;;
8319;SDS011;4197;42.130;24.746;2024-03-23T06:02:00;16.77;;;10.27;;
8319;SDS011;4197;42.130;24.746;2024-03-23T06:04:31;14.50;;;8.83;;
8319;SDS011;4197;42.130;24.746;2024-03-23T06:06:59;18.37;;;9.83;;
8319;SDS011;4197;42.130;24.746;2024-03-23T06:09:27;13.20;;;8.77;;
8319;SDS011;4197;42.130;24.746;2024-03-23T06:11:53;14.50;;;8.93;;
8319;SDS011;4197;42.130;24.746;2024-03-23T06:14:20;11.80;;;9.00;;
8319;SDS011;4197;42.130;24.746;2024-03-23T06:16:46;13.37;;;8.37;;
8319;SDS011;4197;42.130;24.746;2024-03-23T06:19:15;18.97;;;8.27;;
8319;SDS011;4197;42.130;24.746;2024-03-23T06:21:42;13.00;;;8.50;;
8319;SDS011;4197;42.130;24.746;2024-03-23T06:24:12;11.80;;;8.57;;
8319;SDS011;4197;42.130;24.746;2024-03-23T06:26:38;13.80;;;10.33;;
8319;SDS011;4197;42.130;24.746;2024-03-23T06:29:06;12.27;;;8.77;;
8319;SDS011;4197;42.130;24.746;2024-03-23T06:31:32;13.53;;;9.60;;
8319;SDS011;4197;42.130;24.746;2024-03-23T06:33:59;13.70;;;9.20;;
8319;SDS011;4197;42.130;24.746;2024-03-23T06:36:27;16.47;;;10.00;;
8319;SDS011;4197;42.130;24.746;2024-03-23T06:38:56;15.87;;;9.07;;
8319;SDS011;4197;42.130;24.746;2024-03-23T06:41:24;17.17;;;9.67;;
8319;SDS011;4197;42.130;24.746;2024-03-23T06:43:53;14.17;;;9.20;;
8319;SDS011;4197;42.130;24.746;2024-03-23T06:46:19;15.37;;;9.00;;
8319;SDS011;4197;42.130;24.746;2024-03-23T06:48:46;15.00;;;9.40;;
8319;SDS011;4197;42.130;24.746;2024-03-23T06:51:12;14.70;;;9.37;;
8319;SDS011;4197;42.130;24.746;2024-03-23T06:53:40;16.00;;;8.70;;
8319;SDS011;4197;42.130;24.746;2024-03-23T06:56:06;22.90;;;9.03;;
8319;SDS011;4197;42.130;24.746;2024-03-23T06:58:35;13.33;;;8.83;;
8319;SDS011;4197;42.130;24.746;2024-03-23T07:01:02;19.23;;;9.43;;
8319;SDS011;4197;42.130;24.746;2024-03-23T07:03:30;13.30;;;9.10;;
8319;SDS011;4197;42.130;24.746;2024-03-23T07:05:57;14.77;;;8.80;;
8319;SDS011;4197;42.130;24.746;2024-03-23T07:08:25;16.40;;;8.97;;
8319;SDS011;4197;42.130;24.746;2024-03-23T07:10:51;10.83;;;8.63;;
8319;SDS011;4197;42.130;24.746;2024-03-23T07:13:18;17.77;;;8.93;;
8319;SDS011;4197;42.130;24.746;2024-03-23T07:15:52;12.57;;;8.97;;
8319;SDS011;4197;42.130;24.746;2024-03-23T07:18:21;13.47;;;9.17;;
8319;SDS011;4197;42.130;24.746;2024-03-23T07:20:53;10.37;;;8.80;;
8319;SDS011;4197;42.130;24.746;2024-03-23T07:23:22;15.20;;;8.87;;
8319;SDS011;4197;42.130;24.746;2024-03-23T07:25:56;13.30;;;8.83;;
8319;SDS011;4197;42.130;24.746;2024-03-23T07:28:24;16.73;;;9.87;;
8319;SDS011;4197;42.130;24.746;2024-03-23T07:31:03;11.93;;;8.30;;
8319;SDS011;4197;42.130;24.746;2024-03-23T07:33:31;15.97;;;9.10;;
8319;SDS011;4197;42.130;24.746;2024-03-23T07:35:58;15.13;;;9.07;;
8319;SDS011;4197;42.130;24.746;2024-03-23T07:38:27;18.53;;;9.17;;
8319;SDS011;4197;42.130;24.746;2024-03-23T07:41:04;18.83;;;9.17;;
8319;SDS011;4197;42.130;24.746;2024-03-23T07:43:32;14.37;;;9.20;;
8319;SDS011;4197;42.130;24.746;2024-03-23T07:45:59;19.73;;;9.93;;
8319;SDS011;4197;42.130;24.746;2024-03-23T07:48:31;10.20;;;8.63;;
8319;SDS011;4197;42.130;24.746;2024-03-23T07:50:58;11.70;;;8.30;;
8319;SDS011;4197;42.130;24.746;2024-03-23T07:53:27;12.23;;;8.23;;
8319;SDS011;4197;42.130;24.746;2024-03-23T07:55:54;18.27;;;8.30;;
8319;SDS011;4197;42.130;24.746;2024-03-23T07:58:24;10.67;;;8.00;;
8319;SDS011;4197;42.130;24.746;2024-03-23T08:00:50;13.60;;;8.37;;
8319;SDS011;4197;42.130;24.746;2024-03-23T08:03:18;12.10;;;8.70;;
8319;SDS011;4197;42.130;24.746;2024-03-23T08:05:47;11.23;;;7.77;;
8319;SDS011;4197;42.130;24.746;2024-03-23T08:08:14;11.00;;;7.90;;
8319;SDS011;4197;42.130;24.746;2024-03-23T08:10:48;12.57;;;8.57;;
8319;SDS011;4197;42.130;24.746;2024-03-23T08:13:16;14.07;;;8.47;;
8319;SDS011;4197;42.130;24.746;2024-03-23T08:15:43;21.30;;;8.53;;
8319;SDS011;4197;42.130;24.746;2024-03-23T08:18:12;17.97;;;8.37;;
8319;SDS011;4197;42.130;24.746;2024-03-23T08:20:41;10.43;;;8.30;;
8319;SDS011;4197;42.130;24.746;2024-03-23T08:23:10;11.17;;;8.23;;
8319;SDS011;4197;42.130;24.746;2024-03-23T08:25:37;11.17;;;7.20;;
8319;SDS011;4197;42.130;24.746;2024-03-23T08:28:04;15.63;;;7.57;;
8319;SDS011;4197;42.130;24.746;2024-03-23T08:30:31;11.63;;;8.13;;
8319;SDS011;4197;42.130;24.746;2024-03-23T08:32:58;21.30;;;7.43;;
8319;SDS011;4197;42.130;24.746;2024-03-23T08:35:25;9.80;;;7.00;;
8319;SDS011;4197;42.130;24.746;2024-03-23T08:37:52;13.93;;;6.90;;
8319;SDS011;4197;42.130;24.746;2024-03-23T08:40:19;15.63;;;7.57;;
8319;SDS011;4197;42.130;24.746;2024-03-23T08:42:47;13.97;;;6.87;;
8319;SDS011;4197;42.130;24.746;2024-03-23T08:45:14;17.93;;;8.27;;
8319;SDS011;4197;42.130;24.746;2024-03-23T08:47:43;18.47;;;8.17;;
8319;SDS011;4197;42.130;24.746;2024-03-23T08:50:10;22.07;;;9.50;;
8319;SDS011;4197;42.130;24.746;2024-03-23T08:52:37;17.60;;;10.70;;
8319;SDS011;4197;42.130;24.746;2024-03-23T08:55:04;14.90;;;9.77;;
8319;SDS011;4197;42.130;24.746;2024-03-23T08:57:33;16.27;;;9.67;;
8319;SDS011;4197;42.130;24.746;2024-03-23T09:00:00;18.07;;;8.93;;
8319;SDS011;4197;42.130;24.746;2024-03-23T09:02:28;16.10;;;9.67;;
8319;SDS011;4197;42.130;24.746;2024-03-23T09:04:54;13.77;;;8.70;;
8319;SDS011;4197;42.130;24.746;2024-03-23T09:07:21;13.17;;;9.90;;
8319;SDS011;4197;42.130;24.746;2024-03-23T09:09:47;15.80;;;9.57;;
8319;SDS011;4197;42.130;24.746;2024-03-23T09:12:15;11.80;;;7.90;;
8319;SDS011;4197;42.130;24.746;2024-03-23T09:14:43;10.93;;;7.73;;
8319;SDS011;4197;42.130;24.746;2024-03-23T09:17:11;10.63;;;8.07;;
8319;SDS011;4197;42.130;24.746;2024-03-23T09:19:38;12.33;;;8.37;;
8319;SDS011;4197;42.130;24.746;2024-03-23T09:22:06;17.67;;;7.90;;
8319;SDS011;4197;42.130;24.746;2024-03-23T09:24:32;11.63;;;8.23;;
8319;SDS011;4197;42.130;24.746;2024-03-23T09:27:00;12.60;;;7.47;;
8319;SDS011;4197;42.130;24.746;2024-03-23T09:29:26;10.47;;;7.17;;
8319;SDS011;4197;42.130;24.746;2024-03-23T09:31:55;9.53;;;7.27;;
8319;SDS011;4197;42.130;24.746;2024-03-23T09:34:21;13.63;;;7.27;;
8319;SDS011;4197;42.130;24.746;2024-03-23T09:36:50;12.47;;;7.80;;
8319;SDS011;4197;42.130;24.746;2024-03-23T09:39:17;15.83;;;8.30;;
8319;SDS011;4197;42.130;24.746;2024-03-23T09:41:44;12.07;;;7.07;;
8319;SDS011;4197;42.130;24.746;2024-03-23T09:44:11;13.77;;;8.20;;
8319;SDS011;4197;42.130;24.746;2024-03-23T09:46:39;10.27;;;7.93;;
8319;SDS011;4197;42.130;24.746;2024-03-23T09:49:08;10.77;;;7.60;;
8319;SDS011;4197;42.130;24.746;2024-03-23T09:51:36;9.80;;;8.00;;
8319;SDS011;4197;42.130;24.746;2024-03-23T09:54:03;12.43;;;7.57;;
8319;SDS011;4197;42.130;24.746;2024-03-23T09:56:30;11.90;;;7.40;;
8319;SDS011;4197;42.130;24.746;2024-03-23T09:59:02;13.40;;;8.03;;
8319;SDS011;4197;42.130;24.746;2024-03-23T10:01:32;10.17;;;7.53;;
8319;SDS011;4197;42.130;24.746;2024-03-23T10:03:58;15.07;;;8.17;;
8319;SDS011;4197;42.130;24.746;2024-03-23T10:06:27;19.50;;;7.93;;
8319;SDS011;4197;42.130;24.746;2024-03-23T10:08:53;11.10;;;7.60;;
8319;SDS011;4197;42.130;24.746;2024-03-23T10:11:21;11.20;;;7.37;;
8319;SDS011;4197;42.130;24.746;2024-03-23T10:13:47;9.43;;;6.57;;
8319;SDS011;4197;42.130;24.746;2024-03-23T10:16:22;11.20;;;6.80;;
8319;SDS011;4197;42.130;24.746;2024-03-23T10:18:49;12.87;;;7.17;;
8319;SDS011;4197;42.130;24.746;2024-03-23T10:21:18;13.13;;;6.90;;
8319;SDS011;4197;42.130;24.746;2024-03-23T10:23:46;10.40;;;6.90;;
8319;SDS011;4197;42.130;24.746;2024-03-23T10:26:16;11.60;;;6.53;;
8319;SDS011;4197;42.130;24.746;2024-03-23T10:28:54;10.60;;;6.63;;
8319;SDS011;4197;42.130;24.746;2024-03-23T10:31:26;9.37;;;5.73;;
8319;SDS011;4197;42.130;24.746;2024-03-23T10:33:54;22.07;;;7.23;;
8319;SDS011;4197;42.130;24.746;2024-03-23T10:36:21;9.90;;;6.27;;
8319;SDS011;4197;42.130;24.746;2024-03-23T10:38:51;10.07;;;5.88;;
8319;SDS011;4197;42.130;24.746;2024-03-23T10:41:19;12.83;;;5.90;;
8319;SDS011;4197;42.130;24.746;2024-03-23T10:43:46;7.93;;;6.18;;
8319;SDS011;4197;42.130;24.746;2024-03-23T10:46:15;7.27;;;5.60;;
8319;SDS011;4197;42.130;24.746;2024-03-23T10:48:42;8.80;;;5.18;;
8319;SDS011;4197;42.130;24.746;2024-03-23T10:51:11;7.83;;;5.97;;
8319;SDS011;4197;42.130;24.746;2024-03-23T10:53:40;8.37;;;5.43;;
8319;SDS011;4197;42.130;24.746;2024-03-23T10:56:09;8.00;;;5.53;;
8319;SDS011;4197;42.130;24.746;2024-03-23T10:58:39;15.13;;;5.88;;
8319;SDS011;4197;42.130;24.746;2024-03-23T11:01:10;6.70;;;5.23;;
8319;SDS011;4197;42.130;24.746;2024-03-23T11:03:37;8.02;;;5.45;;
8319;SDS011;4197;42.130;24.746;2024-03-23T11:06:07;9.05;;;5.88;;
8319;SDS011;4197;42.130;24.746;2024-03-23T11:08:34;12.73;;;5.63;;
8319;SDS011;4197;42.130;24.746;2024-03-23T11:11:15;9.77;;;5.90;;
8319;SDS011;4197;42.130;24.746;2024-03-23T11:13:44;8.33;;;5.57;;
8319;SDS011;4197;42.130;24.746;2024-03-23T11:16:15;9.47;;;5.80;;
8319;SDS011;4197;42.130;24.746;2024-03-23T11:18:43;7.35;;;5.30;;
8319;SDS011;4197;42.130;24.746;2024-03-23T11:21:12;12.65;;;6.22;;
8319;SDS011;4197;42.130;24.746;2024-03-23T11:24:18;7.57;;;5.63;;
8319;SDS011;4197;42.130;24.746;2024-03-23T11:26:51;6.53;;;4.93;;
8319;SDS011;4197;42.130;24.746;2024-03-23T11:29:17;6.40;;;5.07;;
8319;SDS011;4197;42.130;24.746;2024-03-23T11:31:47;7.32;;;5.53;;
8319;SDS011;4197;42.130;24.746;2024-03-23T11:34:15;6.55;;;4.70;;
8319;SDS011;4197;42.130;24.746;2024-03-23T11:36:43;7.30;;;4.93;;
8319;SDS011;4197;42.130;24.746;2024-03-23T11:39:13;7.95;;;4.55;;
8319;SDS011;4197;42.130;24.746;2024-03-23T11:41:48;6.40;;;5.20;;
8319;SDS011;4197;42.130;24.746;2024-03-23T11:44:17;8.38;;;5.35;;
8319;SDS011;4197;42.130;24.746;2024-03-23T11:46:46;6.80;;;4.93;;
8319;SDS011;4197;42.130;24.746;2024-03-23T11:49:22;7.82;;;4.72;;
8319;SDS011;4197;42.130;24.746;2024-03-23T11:51:51;6.53;;;4.47;;
8319;SDS011;4197;42.130;24.746;2024-03-23T11:54:20;7.10;;;5.00;;
8319;SDS011;4197;42.130;24.746;2024-03-23T11:56:55;10.68;;;6.05;;
8319;SDS011;4197;42.130;24.746;2024-03-23T11:59:33;6.35;;;4.85;;
8319;SDS011;4197;42.130;24.746;2024-03-23T12:02:06;7.28;;;4.82;;
8319;SDS011;4197;42.130;24.746;2024-03-23T12:04:33;7.57;;;4.82;;
8319;SDS011;4197;42.130;24.746;2024-03-23T12:07:08;7.30;;;5.07;;
8319;SDS011;4197;42.130;24.746;2024-03-23T12:09:36;11.18;;;5.10;;
8319;SDS011;4197;42.130;24.746;2024-03-23T12:12:08;15.02;;;4.95;;
8319;SDS011;4197;42.130;24.746;2024-03-23T12:14:39;9.80;;;6.05;;
8319;SDS011;4197;42.130;24.746;2024-03-23T12:17:07;8.80;;;5.25;;
8319;SDS011;4197;42.130;24.746;2024-03-23T12:19:35;7.93;;;4.82;;
8319;SDS011;4197;42.130;24.746;2024-03-23T12:22:03;12.65;;;5.05;;
8319;SDS011;4197;42.130;24.746;2024-03-23T12:24:31;9.00;;;5.03;;
8319;SDS011;4197;42.130;24.746;2024-03-23T12:27:00;9.10;;;4.35;;
8319;SDS011;4197;42.130;24.746;2024-03-23T12:29:28;9.27;;;4.18;;
8319;SDS011;4197;42.130;24.746;2024-03-23T12:32:01;7.10;;;4.30;;
8319;SDS011;4197;42.130;24.746;2024-03-23T12:34:28;5.93;;;4.07;;
8319;SDS011;4197;42.130;24.746;2024-03-23T12:36:55;8.30;;;4.50;;
8319;SDS011;4197;42.130;24.746;2024-03-23T12:39:22;5.47;;;4.40;;
8319;SDS011;4197;42.130;24.746;2024-03-23T12:41:49;8.77;;;4.57;;
8319;SDS011;4197;42.130;24.746;2024-03-23T12:44:18;7.45;;;4.65;;
8319;SDS011;4197;42.130;24.746;2024-03-23T12:46:46;7.45;;;4.43;;
8319;SDS011;4197;42.130;24.746;2024-03-23T12:49:14;9.00;;;4.82;;
8319;SDS011;4197;42.130;24.746;2024-03-23T12:51:42;8.05;;;4.30;;
8319;SDS011;4197;42.130;24.746;2024-03-23T12:54:14;9.13;;;4.72;;
8319;SDS011;4197;42.130;24.746;2024-03-23T12:56:41;7.03;;;3.67;;
8319;SDS011;4197;42.130;24.746;2024-03-23T12:59:08;6.90;;;4.45;;
8319;SDS011;4197;42.130;24.746;2024-03-23T13:01:35;6.10;;;4.07;;
8319;SDS011;4197;42.130;24.746;2024-03-23T13:04:01;7.03;;;3.88;;
8319;SDS011;4197;42.130;24.746;2024-03-23T13:06:30;5.50;;;4.00;;
8319;SDS011;4197;42.130;24.746;2024-03-23T13:08:59;6.10;;;3.72;;
8319;SDS011;4197;42.130;24.746;2024-03-23T13:11:27;5.85;;;3.92;;
8319;SDS011;4197;42.130;24.746;2024-03-23T13:13:54;4.15;;;3.45;;
8319;SDS011;4197;42.130;24.746;2024-03-23T13:16:22;5.90;;;3.50;;
8319;SDS011;4197;42.130;24.746;2024-03-23T13:18:48;3.50;;;3.05;;
8319;SDS011;4197;42.130;24.746;2024-03-23T13:21:17;4.35;;;3.40;;
8319;SDS011;4197;42.130;24.746;2024-03-23T13:23:47;5.57;;;3.88;;
8319;SDS011;4197;42.130;24.746;2024-03-23T13:26:16;5.25;;;4.32;;
8319;SDS011;4197;42.130;24.746;2024-03-23T13:28:42;6.20;;;4.60;;
8319;SDS011;4197;42.130;24.746;2024-03-23T13:31:10;7.47;;;4.25;;
8319;SDS011;4197;42.130;24.746;2024-03-23T13:33:36;5.03;;;3.67;;
8319;SDS011;4197;42.130;24.746;2024-03-23T13:36:05;5.70;;;4.28;;
8319;SDS011;4197;42.130;24.746;2024-03-23T13:38:32;5.53;;;4.45;;
8319;SDS011;4197;42.130;24.746;2024-03-23T13:41:00;7.43;;;4.80;;
8319;SDS011;4197;42.130;24.746;2024-03-23T13:43:27;5.93;;;4.78;;
8319;SDS011;4197;42.130;24.746;2024-03-23T13:45:56;8.85;;;5.00;;
8319;SDS011;4197;42.130;24.746;2024-03-23T13:48:24;5.65;;;4.30;;
8319;SDS011;4197;42.130;24.746;2024-03-23T13:50:57;10.43;;;5.90;;
8319;SDS011;4197;42.130;24.746;2024-03-23T13:53:24;9.38;;;5.88;;
8319;SDS011;4197;42.130;24.746;2024-03-23T13:55:52;10.75;;;6.07;;
8319;SDS011;4197;42.130;24.746;2024-03-23T13:58:20;9.70;;;5.93;;
8319;SDS011;4197;42.130;24.746;2024-03-23T14:00:49;22.48;;;6.78;;
8319;SDS011;4197;42.130;24.746;2024-03-23T14:03:16;8.63;;;5.60;;
8319;SDS011;4197;42.130;24.746;2024-03-23T14:05:44;8.45;;;5.07;;
8319;SDS011;4197;42.130;24.746;2024-03-23T14:08:10;8.80;;;4.93;;
8319;SDS011;4197;42.130;24.746;2024-03-23T14:10:40;7.60;;;4.32;;
8319;SDS011;4197;42.130;24.746;2024-03-23T14:13:09;8.38;;;4.28;;
8319;SDS011;4197;42.130;24.746;2024-03-23T14:15:37;12.27;;;4.65;;
8319;SDS011;4197;42.130;24.746;2024-03-23T14:18:05;8.38;;;3.95;;
8319;SDS011;4197;42.130;24.746;2024-03-23T14:20:32;7.13;;;3.60;;
8319;SDS011;4197;42.130;24.746;2024-03-23T14:22:59;9.35;;;3.90;;
8319;SDS011;4197;42.130;24.746;2024-03-23T14:25:26;9.50;;;3.70;;
8319;SDS011;4197;42.130;24.746;2024-03-23T14:27:54;6.45;;;3.45;;
8319;SDS011;4197;42.130;24.746;2024-03-23T14:30:21;7.57;;;3.88;;
8319;SDS011;4197;42.130;24.746;2024-03-23T14:32:49;8.52;;;3.60;;
8319;SDS011;4197;42.130;24.746;2024-03-23T14:35:17;4.35;;;3.33;;
8319;SDS011;4197;42.130;24.746;2024-03-23T14:37:44;7.55;;;3.25;;
8319;SDS011;4197;42.130;24.746;2024-03-23T14:40:12;6.18;;;3.60;;
8319;SDS011;4197;42.130;24.746;2024-03-23T14:42:39;6.97;;;2.80;;
8319;SDS011;4197;42.130;24.746;2024-03-23T14:45:07;5.85;;;3.00;;
8319;SDS011;4197;42.130;24.746;2024-03-23T14:47:35;10.43;;;3.45;;
8319;SDS011;4197;42.130;24.746;2024-03-23T14:50:03;5.90;;;2.95;;
8319;SDS011;4197;42.130;24.746;2024-03-23T14:52:34;7.95;;;3.10;;
8319;SDS011;4197;42.130;24.746;2024-03-23T14:55:00;5.70;;;3.20;;
8319;SDS011;4197;42.130;24.746;2024-03-23T14:57:28;6.28;;;3.63;;
8319;SDS011;4197;42.130;24.746;2024-03-23T14:59:55;4.57;;;3.03;;
8319;SDS011;4197;42.130;24.746;2024-03-23T15:02:22;6.32;;;2.90;;
8319;SDS011;4197;42.130;24.746;2024-03-23T15:04:49;5.20;;;2.80;;
8319;SDS011;4197;42.130;24.746;2024-03-23T15:10:07;6.72;;;3.10;;
8319;SDS011;4197;42.130;24.746;2024-03-23T15:12:37;6.15;;;3.22;;
8319;SDS011;4197;42.130;24.746;2024-03-23T15:15:05;3.88;;;3.25;;
8319;SDS011;4197;42.130;24.746;2024-03-23T15:17:33;8.55;;;3.63;;
8319;SDS011;4197;42.130;24.746;2024-03-23T15:20:03;4.30;;;3.50;;
8319;SDS011;4197;42.130;24.746;2024-03-23T15:22:31;6.72;;;3.20;;
8319;SDS011;4197;42.130;24.746;2024-03-23T15:25:00;6.47;;;3.22;;
8319;SDS011;4197;42.130;24.746;2024-03-23T15:27:27;4.93;;;3.58;;
8319;SDS011;4197;42.130;24.746;2024-03-23T15:29:55;5.22;;;2.90;;
8319;SDS011;4197;42.130;24.746;2024-03-23T15:32:23;5.13;;;2.78;;
8319;SDS011;4197;42.130;24.746;2024-03-23T15:34:51;16.23;;;3.72;;
8319;SDS011;4197;42.130;24.746;2024-03-23T15:37:17;10.80;;;3.75;;
8319;SDS011;4197;42.130;24.746;2024-03-23T15:39:44;6.45;;;3.10;;
8319;SDS011;4197;42.130;24.746;2024-03-23T15:42:12;10.75;;;3.42;;
8319;SDS011;4197;42.130;24.746;2024-03-23T15:44:40;6.05;;;3.17;;
8319;SDS011;4197;42.130;24.746;2024-03-23T15:47:06;5.80;;;3.28;;
8319;SDS011;4197;42.130;24.746;2024-03-23T15:49:34;4.47;;;3.13;;